createdAt,value
2022-10-21T00:04:10.473Z,3.58
2022-10-21T00:06:36.918Z,3.40
2022-10-21T00:09:03.458Z,3.43
2022-10-21T00:11:29.991Z,3.38
2022-10-21T00:13:56.950Z,3.40
2022-10-21T00:16:23.480Z,3.44
2022-10-21T00:18:49.904Z,3.38
2022-10-21T00:21:18.941Z,3.43
2022-10-21T00:23:45.949Z,3.32
2022-10-21T00:26:13.410Z,3.34
2022-10-21T00:28:39.980Z,3.35
2022-10-21T00:31:08.363Z,3.50
2022-10-21T00:33:34.783Z,3.51
2022-10-21T00:36:04.350Z,3.48
2022-10-21T00:38:32.265Z,3.55
2022-10-21T00:40:58.899Z,3.51
2022-10-21T00:43:26.430Z,3.49
2022-10-21T00:45:58.276Z,3.42
2022-10-21T00:48:41.434Z,3.33
2022-10-21T00:51:17.909Z,3.31
2022-10-21T00:53:46.780Z,3.30
2022-10-21T00:56:18.585Z,3.35
2022-10-21T00:58:47.775Z,3.35
2022-10-21T01:01:17.896Z,3.34
2022-10-21T01:03:47.258Z,3.20
2022-10-21T01:06:14.153Z,3.12
2022-10-21T01:08:40.709Z,3.10
2022-10-21T01:11:12.144Z,3.06
2022-10-21T01:14:01.068Z,2.96
2022-10-21T01:16:36.505Z,2.94
2022-10-21T01:19:30.842Z,2.85
2022-10-21T01:22:04.180Z,2.81
2022-10-21T01:24:56.870Z,2.79
2022-10-21T01:27:50.769Z,2.90
2022-10-21T01:30:17.080Z,2.76
2022-10-21T01:32:47.974Z,2.82
2022-10-21T01:35:33.405Z,2.78
2022-10-21T01:38:15.078Z,2.75
2022-10-21T01:41:04.029Z,2.67
2022-10-21T01:43:37.730Z,2.63
2022-10-21T01:46:13.233Z,2.54
2022-10-21T01:48:43.391Z,2.59
2022-10-21T01:51:10.098Z,2.47
2022-10-21T01:53:41.668Z,2.41
2022-10-21T01:56:09.471Z,2.41
2022-10-21T01:58:37.530Z,2.35
2022-10-21T02:01:06.385Z,2.36
2022-10-21T02:03:36.146Z,2.37
2022-10-21T02:06:02.979Z,2.30
2022-10-21T02:08:29.450Z,2.29
2022-10-21T02:10:58.465Z,2.32
2022-10-21T02:13:27.225Z,2.29
2022-10-21T02:15:55.858Z,2.32
2022-10-21T02:18:25.078Z,2.29
2022-10-21T02:20:56.313Z,2.34
2022-10-21T02:23:34.007Z,2.35
2022-10-21T02:26:00.527Z,2.30
2022-10-21T02:28:27.060Z,2.29
2022-10-21T02:30:56.702Z,2.37
2022-10-21T02:33:31.231Z,2.44
2022-10-21T02:36:12.717Z,2.39
2022-10-21T02:38:44.122Z,2.39
2022-10-21T02:41:12.039Z,2.36
2022-10-21T02:43:42.242Z,2.39
2022-10-21T02:46:11.434Z,2.38
2022-10-21T02:48:39.620Z,2.42
2022-10-21T02:51:07.377Z,2.49
2022-10-21T02:53:34.848Z,2.50
2022-10-21T02:56:01.367Z,2.44
2022-10-21T02:58:27.999Z,2.41
2022-10-21T03:00:54.589Z,2.36
2022-10-21T03:03:21.436Z,2.47
2022-10-21T03:05:48.173Z,2.44
2022-10-21T03:08:14.757Z,2.32
2022-10-21T03:10:41.217Z,2.32
2022-10-21T03:13:07.703Z,2.33
2022-10-21T03:15:34.193Z,2.38
2022-10-21T03:18:00.665Z,2.41
2022-10-21T03:20:27.142Z,2.32
2022-10-21T03:22:53.581Z,2.20
2022-10-21T03:25:20.100Z,2.17
2022-10-21T03:27:46.573Z,2.17
2022-10-21T03:30:13.095Z,2.13
2022-10-21T03:32:39.852Z,2.09
2022-10-21T03:35:06.993Z,2.02
2022-10-21T03:37:33.504Z,2.02
2022-10-21T03:40:00.005Z,1.99
2022-10-21T03:42:28.290Z,2.02
2022-10-21T03:44:54.759Z,2.06
2022-10-21T03:47:21.208Z,2.08
2022-10-21T03:49:47.849Z,2.17
2022-10-21T03:52:14.257Z,2.13
2022-10-21T03:54:40.666Z,2.11
2022-10-21T03:57:07.089Z,2.14
2022-10-21T03:59:33.621Z,2.06
2022-10-21T04:02:00.186Z,2.07
2022-10-21T04:04:26.711Z,2.14
2022-10-21T04:06:53.197Z,2.00
2022-10-21T04:09:19.720Z,1.92
2022-10-21T04:11:46.345Z,1.99
2022-10-21T04:14:15.263Z,1.98
2022-10-21T04:16:42.307Z,1.98
2022-10-21T04:19:09.052Z,1.95
2022-10-21T04:21:35.672Z,1.91
2022-10-21T04:24:02.212Z,1.81
2022-10-21T04:26:28.627Z,1.72
2022-10-21T04:28:55.113Z,1.65
2022-10-21T04:31:21.622Z,1.77
2022-10-21T04:33:48.246Z,1.76
2022-10-21T04:36:14.985Z,1.72
2022-10-21T04:38:41.452Z,1.61
2022-10-21T04:41:07.951Z,1.69
2022-10-21T04:43:35.101Z,1.65
2022-10-21T04:46:01.559Z,1.71
2022-10-21T04:48:27.988Z,1.71
2022-10-21T04:50:54.836Z,1.77
2022-10-21T04:53:22.397Z,1.77
2022-10-21T04:55:54.768Z,1.75
2022-10-21T04:58:22.624Z,1.73
2022-10-21T05:00:50.253Z,1.76
2022-10-21T05:03:16.985Z,1.83
2022-10-21T05:05:43.773Z,1.81
2022-10-21T05:08:11.667Z,1.84
2022-10-21T05:10:38.526Z,1.81
2022-10-21T05:13:06.096Z,1.92
2022-10-21T05:15:33.315Z,1.96
2022-10-21T05:17:59.723Z,1.94
2022-10-21T05:20:26.300Z,1.98
2022-10-21T05:22:53.684Z,1.89
2022-10-21T05:25:20.869Z,1.96
2022-10-21T05:27:47.727Z,1.89
2022-10-21T05:30:14.635Z,1.90
2022-10-21T05:32:42.093Z,1.95
2022-10-21T05:35:09.129Z,1.90
2022-10-21T05:37:35.848Z,1.91
2022-10-21T05:40:04.300Z,1.94
2022-10-21T05:42:31.367Z,2.00
2022-10-21T05:44:58.045Z,2.05
2022-10-21T05:47:24.941Z,2.05
2022-10-21T05:49:51.573Z,2.08
2022-10-21T05:52:18.134Z,2.14
2022-10-21T05:54:44.742Z,2.17
2022-10-21T05:57:11.198Z,2.32
2022-10-21T05:59:37.841Z,2.31
2022-10-21T06:02:04.351Z,2.26
2022-10-21T06:04:36.333Z,2.26
2022-10-21T06:07:05.354Z,2.32
2022-10-21T06:09:32.663Z,2.42
2022-10-21T06:11:59.467Z,2.47
2022-10-21T06:14:27.066Z,2.45
2022-10-21T06:16:53.492Z,2.48
2022-10-21T06:19:20.100Z,2.40
2022-10-21T06:21:48.119Z,2.40
2022-10-21T06:24:14.863Z,2.51
2022-10-21T06:26:41.500Z,2.54
2022-10-21T06:29:08.148Z,2.48
2022-10-21T06:31:35.021Z,2.48
2022-10-21T06:34:01.616Z,2.55
2022-10-21T06:36:28.676Z,2.52
2022-10-21T06:38:55.433Z,2.63
2022-10-21T06:41:22.269Z,2.79
2022-10-21T06:43:48.752Z,2.74
2022-10-21T06:46:15.623Z,2.77
2022-10-21T06:48:42.250Z,2.84
2022-10-21T06:51:20.731Z,3.07
2022-10-21T06:53:47.983Z,3.21
2022-10-21T06:56:17.198Z,3.34
2022-10-21T06:58:47.998Z,3.37
2022-10-21T07:01:34.273Z,3.56
2022-10-21T07:04:08.807Z,3.63
2022-10-21T07:06:35.717Z,3.64
2022-10-21T07:09:03.170Z,3.63
2022-10-21T07:11:29.830Z,3.67
2022-10-21T07:13:56.286Z,3.72
2022-10-21T07:16:33.129Z,3.63
2022-10-21T07:18:59.637Z,3.68
2022-10-21T07:21:29.495Z,3.69
2022-10-21T07:23:59.414Z,3.77
2022-10-21T07:26:27.705Z,3.94
2022-10-21T07:28:55.664Z,3.94
2022-10-21T07:31:22.298Z,4.12
2022-10-21T07:33:49.533Z,4.35
2022-10-21T07:36:23.897Z,4.59
2022-10-21T07:38:51.744Z,4.74
2022-10-21T07:41:21.216Z,5.02
2022-10-21T07:43:48.188Z,5.32
2022-10-21T07:46:15.546Z,5.39
2022-10-21T07:48:42.342Z,5.36
2022-10-21T07:51:11.107Z,5.21
2022-10-21T07:53:38.570Z,5.47
2022-10-21T07:56:12.467Z,5.85
2022-10-21T07:58:39.045Z,5.97
2022-10-21T08:01:07.246Z,5.69
2022-10-21T08:03:35.543Z,5.52
2022-10-21T08:06:02.688Z,5.35
2022-10-21T08:08:29.427Z,5.15
2022-10-21T08:10:56.984Z,5.26
2022-10-21T08:13:23.968Z,5.30
2022-10-21T08:15:53.311Z,5.23
2022-10-21T08:18:21.052Z,5.38
2022-10-21T08:20:49.270Z,5.64
2022-10-21T08:23:17.065Z,6.31
2022-10-21T08:25:51.323Z,7.13
2022-10-21T08:28:18.085Z,7.03
2022-10-21T08:30:45.002Z,6.80
2022-10-21T08:33:12.820Z,6.52
2022-10-21T08:35:39.692Z,6.46
2022-10-21T08:40:45.770Z,7.66
2022-10-21T08:43:33.807Z,8.03
2022-10-21T08:46:06.282Z,7.87
2022-10-21T08:48:38.655Z,7.37
2022-10-21T08:51:06.916Z,7.10
2022-10-21T08:53:38.047Z,6.74
2022-10-21T08:56:14.587Z,6.48
2022-10-21T08:58:47.642Z,6.39
2022-10-21T09:01:33.191Z,6.39
2022-10-21T09:04:19.098Z,6.41
2022-10-21T09:06:58.641Z,6.41
2022-10-21T09:09:35.143Z,6.27
2022-10-21T09:12:13.453Z,6.46
2022-10-21T09:14:54.463Z,6.76
2022-10-21T09:17:42.787Z,7.19
2022-10-21T09:20:27.437Z,7.61
2022-10-21T09:23:17.052Z,7.90
2022-10-21T09:26:04.668Z,8.10
2022-10-21T09:28:32.435Z,7.95
2022-10-21T09:31:01.153Z,8.10
2022-10-21T09:33:30.774Z,8.03
2022-10-21T09:36:07.172Z,8.16
2022-10-21T09:38:55.801Z,8.28
2022-10-21T09:41:30.586Z,8.08
2022-10-21T09:43:57.152Z,8.13
2022-10-21T09:46:23.849Z,8.38
2022-10-21T09:49:36.793Z,8.36
2022-10-21T09:51:40.544Z,8.34
2022-10-21T09:54:22.749Z,8.47
2022-10-21T09:56:57.132Z,8.74
2022-10-21T09:59:29.063Z,8.35
2022-10-21T10:02:07.016Z,8.52
2022-10-21T10:04:35.413Z,8.63
2022-10-21T10:07:26.717Z,8.58
2022-10-21T10:09:53.248Z,8.79
2022-10-21T10:12:24.961Z,8.59
2022-10-21T10:14:51.808Z,8.55
2022-10-21T10:17:32.132Z,8.90
2022-10-21T10:20:04.519Z,8.87
2022-10-21T10:22:32.749Z,8.95
2022-10-21T10:25:12.219Z,8.88
2022-10-21T10:28:07.731Z,9.07
2022-10-21T10:30:45.457Z,9.01
2022-10-21T10:33:25.351Z,9.29
2022-10-21T10:35:53.685Z,9.48
2022-10-21T10:38:38.352Z,9.66
2022-10-21T10:41:15.995Z,9.61
2022-10-21T10:43:54.397Z,9.41
2022-10-21T10:46:34.258Z,9.21
2022-10-21T10:49:17.629Z,9.51
2022-10-21T10:51:46.748Z,9.38
2022-10-21T10:54:17.858Z,9.28
2022-10-21T10:56:59.779Z,9.19
2022-10-21T10:59:32.841Z,9.30
2022-10-21T11:02:16.665Z,9.06
2022-10-21T11:05:08.946Z,9.27
2022-10-21T11:07:51.029Z,9.71
2022-10-21T11:10:27.713Z,9.96
2022-10-21T11:12:54.429Z,10.22
2022-10-21T11:15:25.949Z,10.26
2022-10-21T11:18:07.454Z,10.31
2022-10-21T11:20:51.754Z,10.08
2022-10-21T11:23:26.948Z,10.06
2022-10-21T11:26:03.537Z,10.19
2022-10-21T11:28:34.783Z,10.51
2022-10-21T11:31:07.047Z,10.82
2022-10-21T11:33:46.518Z,10.95
2022-10-21T11:36:25.152Z,10.87
2022-10-21T11:39:17.231Z,10.93
2022-10-21T11:41:50.698Z,10.85
2022-10-21T11:44:40.013Z,10.34
2022-10-21T11:47:25.872Z,10.45
2022-10-21T11:50:04.316Z,10.47
2022-10-21T11:53:12.057Z,10.39
2022-10-21T11:55:58.549Z,10.27
2022-10-21T11:58:59.554Z,10.07
2022-10-21T12:01:32.973Z,9.95
2022-10-21T12:04:17.422Z,9.76
2022-10-21T12:07:14.354Z,9.66
2022-10-21T12:09:49.676Z,9.56
2022-10-21T12:12:18.589Z,9.57
2022-10-21T12:14:58.168Z,9.42
2022-10-21T12:17:25.616Z,9.43
2022-10-21T12:19:57.001Z,9.37
2022-10-21T12:22:25.074Z,9.50
2022-10-21T12:25:13.370Z,9.64
2022-10-21T12:27:42.121Z,9.73
2022-10-21T12:30:23.357Z,9.65
2022-10-21T12:33:08.313Z,9.57
2022-10-21T12:35:55.272Z,9.52
2022-10-21T12:38:26.404Z,9.62
2022-10-21T12:41:23.837Z,9.51
2022-10-21T12:43:59.399Z,9.36
2022-10-21T12:46:46.524Z,9.28
2022-10-21T12:49:33.634Z,9.36
2022-10-21T12:52:03.005Z,9.44
2022-10-21T12:54:32.179Z,9.48
2022-10-21T12:57:01.754Z,9.36
2022-10-21T12:59:36.551Z,9.49
2022-10-21T13:02:05.632Z,9.50
2022-10-21T13:04:32.391Z,9.37
2022-10-21T13:07:00.112Z,9.27
2022-10-21T13:09:51.043Z,9.29
2022-10-21T13:12:17.360Z,9.24
2022-10-21T13:14:47.912Z,9.20
2022-10-21T13:17:24.590Z,9.35
2022-10-21T13:20:16.095Z,9.34
2022-10-21T13:22:47.053Z,9.25
2022-10-21T13:25:16.101Z,9.13
2022-10-21T13:27:45.163Z,8.97
2022-10-21T13:30:35.942Z,8.99
2022-10-21T13:33:07.021Z,8.92
2022-10-21T13:35:54.451Z,8.90
2022-10-21T13:38:23.045Z,8.94
2022-10-21T13:40:55.971Z,8.93
2022-10-21T13:43:30.898Z,9.07
2022-10-21T13:46:10.201Z,9.07
2022-10-21T13:48:41.812Z,9.13
2022-10-21T13:51:18.338Z,9.12
2022-10-21T13:53:48.103Z,9.12
2022-10-21T13:56:23.890Z,9.10
2022-10-21T13:58:51.043Z,9.09
2022-10-21T14:01:21.947Z,9.09
2022-10-21T14:06:20.672Z,9.22
2022-10-21T14:08:47.671Z,9.11
2022-10-21T14:11:21.108Z,9.13
2022-10-21T14:13:48.630Z,9.14
2022-10-21T14:16:32.406Z,9.05
2022-10-21T14:18:59.924Z,9.00
2022-10-21T14:21:28.041Z,8.96
2022-10-21T14:23:54.667Z,8.97
2022-10-21T14:26:21.338Z,8.97
2022-10-21T14:28:49.508Z,9.04
2022-10-21T14:31:16.125Z,9.06
2022-10-21T14:33:45.425Z,9.10
2022-10-21T14:36:18.729Z,9.02
2022-10-21T14:38:58.784Z,9.09
2022-10-21T14:41:37.657Z,9.05
2022-10-21T14:44:25.368Z,9.16
2022-10-21T14:46:53.926Z,9.19
2022-10-21T14:49:27.732Z,9.14
2022-10-21T14:52:00.174Z,9.13
2022-10-21T14:54:49.577Z,9.15
2022-10-21T14:57:26.757Z,9.11
2022-10-21T14:59:53.369Z,9.05
2022-10-21T15:02:23.170Z,9.05
2022-10-21T15:04:52.922Z,9.11
2022-10-21T15:07:29.818Z,9.13
2022-10-21T15:10:04.353Z,9.06
2022-10-21T15:12:45.681Z,9.09
2022-10-21T15:15:40.288Z,9.09
2022-10-21T15:18:23.301Z,9.07
2022-10-21T15:20:57.481Z,9.06
2022-10-21T15:23:48.917Z,8.95
2022-10-21T15:26:21.471Z,8.90
2022-10-21T15:28:48.164Z,8.90
2022-10-21T15:31:24.100Z,8.93
2022-10-21T15:33:52.934Z,8.95
2022-10-21T15:36:19.489Z,8.91
2022-10-21T15:38:46.978Z,8.91
2022-10-21T15:41:15.983Z,8.85
2022-10-21T15:43:43.667Z,8.76
2022-10-21T15:46:11.922Z,8.93
2022-10-21T15:48:38.679Z,8.80
2022-10-21T15:51:05.206Z,8.67
2022-10-21T15:53:32.556Z,8.70
2022-10-21T15:56:01.057Z,8.70
2022-10-21T15:58:27.727Z,8.62
2022-10-21T16:00:54.235Z,8.54
2022-10-21T16:03:20.864Z,8.51
2022-10-21T16:05:47.471Z,8.52
2022-10-21T16:08:13.943Z,8.52
2022-10-21T16:10:47.684Z,8.51
2022-10-21T16:13:15.161Z,8.54
2022-10-21T16:15:41.730Z,8.61
2022-10-21T16:18:13.369Z,8.55
2022-10-21T16:20:41.576Z,8.55
2022-10-21T16:23:09.516Z,8.55
2022-10-21T16:25:36.369Z,8.52
2022-10-21T16:28:03.421Z,8.48
2022-10-21T16:30:34.568Z,8.49
2022-10-21T16:33:01.237Z,8.34
2022-10-21T16:35:28.024Z,8.33
2022-10-21T16:37:56.124Z,8.36
2022-10-21T16:40:33.219Z,8.30
2022-10-21T16:42:59.873Z,8.31
2022-10-21T16:45:34.961Z,8.29
2022-10-21T16:48:03.897Z,8.19
2022-10-21T16:50:40.934Z,8.21
2022-10-21T16:53:17.130Z,8.19
2022-10-21T16:55:43.823Z,8.20
2022-10-21T16:58:10.420Z,8.22
2022-10-21T17:00:37.024Z,8.20
2022-10-21T17:03:04.062Z,8.16
2022-10-21T17:05:31.315Z,8.24
2022-10-21T17:07:59.929Z,8.24
2022-10-21T17:10:26.535Z,8.21
2022-10-21T17:12:58.676Z,8.25
2022-10-21T17:15:25.984Z,8.31
2022-10-21T17:17:52.807Z,8.22
2022-10-21T17:20:19.570Z,8.10
2022-10-21T17:22:46.802Z,8.16
2022-10-21T17:25:13.577Z,8.11
2022-10-21T17:27:40.385Z,8.17
2022-10-21T17:30:07.806Z,8.12
2022-10-21T17:32:35.162Z,8.07
2022-10-21T17:35:01.684Z,8.06
2022-10-21T17:37:28.096Z,8.03
2022-10-21T17:39:54.688Z,7.99
2022-10-21T17:42:21.244Z,7.93
2022-10-21T17:44:48.016Z,7.93
2022-10-21T17:47:15.147Z,8.03
2022-10-21T17:49:42.033Z,7.92
2022-10-21T17:52:09.550Z,7.87
2022-10-21T17:54:36.499Z,7.87
2022-10-21T17:57:03.571Z,7.77
2022-10-21T17:59:32.612Z,7.82
2022-10-21T18:01:59.885Z,7.88
2022-10-21T18:04:26.561Z,7.94
2022-10-21T18:06:53.073Z,7.86
2022-10-21T18:09:19.927Z,7.79
2022-10-21T18:11:46.504Z,7.83
2022-10-21T18:14:14.220Z,7.80
2022-10-21T18:16:41.294Z,7.83
2022-10-21T18:19:07.961Z,7.78
2022-10-21T18:21:34.550Z,7.81
2022-10-21T18:24:01.261Z,7.79
2022-10-21T18:26:29.520Z,7.78
2022-10-21T18:28:58.029Z,7.81
2022-10-21T18:31:28.122Z,7.91
2022-10-21T18:33:55.846Z,7.83
2022-10-21T18:36:23.479Z,7.83
2022-10-21T18:38:50.126Z,7.87
2022-10-21T18:41:20.494Z,7.86
2022-10-21T18:43:49.523Z,7.79
2022-10-21T18:46:16.713Z,7.86
2022-10-21T18:48:43.432Z,7.93
2022-10-21T18:51:11.422Z,7.96
2022-10-21T18:53:39.150Z,7.93
2022-10-21T18:56:07.578Z,7.90
2022-10-21T18:58:34.937Z,7.89
2022-10-21T19:01:01.583Z,7.84
2022-10-21T19:03:28.187Z,7.79
2022-10-21T19:05:55.101Z,7.87
2022-10-21T19:08:22.241Z,7.91
2022-10-21T19:10:48.808Z,7.87
2022-10-21T19:13:15.375Z,7.94
2022-10-21T19:15:42.449Z,7.90
2022-10-21T19:18:12.420Z,7.85
2022-10-21T19:20:40.247Z,7.75
2022-10-21T19:23:07.892Z,7.84
2022-10-21T19:25:34.802Z,7.90
2022-10-21T19:28:01.244Z,7.83
2022-10-21T19:30:27.904Z,7.90
2022-10-21T19:32:54.544Z,7.89
2022-10-21T19:35:20.983Z,7.88
2022-10-21T19:37:47.401Z,7.79
2022-10-21T19:40:13.844Z,7.77
2022-10-21T19:42:41.266Z,7.80
2022-10-21T19:45:09.595Z,7.72
2022-10-21T19:47:36.623Z,7.76
2022-10-21T19:50:03.217Z,7.85
2022-10-21T19:52:29.687Z,7.77
2022-10-21T19:54:56.140Z,7.72
2022-10-21T19:57:22.608Z,7.75
2022-10-21T19:59:49.102Z,7.82
2022-10-21T20:02:15.561Z,7.84
2022-10-21T20:04:41.989Z,7.80
2022-10-21T20:07:08.499Z,7.90
2022-10-21T20:09:37.975Z,7.93
2022-10-21T20:12:05.443Z,7.92
2022-10-21T20:14:33.053Z,7.98
2022-10-21T20:16:59.512Z,8.01
2022-10-21T20:19:26.240Z,8.08
2022-10-21T20:21:52.645Z,8.06
2022-10-21T20:24:19.157Z,8.03
2022-10-21T20:26:49.021Z,8.09
2022-10-21T20:29:15.586Z,8.28
2022-10-21T20:31:42.333Z,8.20
2022-10-21T20:34:12.209Z,8.17
2022-10-21T20:36:38.869Z,8.19
2022-10-21T20:39:05.586Z,8.29
2022-10-21T20:41:34.610Z,8.22
2022-10-21T20:44:02.156Z,8.18
2022-10-21T20:46:32.389Z,8.25
2022-10-21T20:48:59.176Z,8.21
2022-10-21T20:51:29.018Z,8.16
2022-10-21T20:53:58.326Z,8.15
2022-10-21T20:56:29.819Z,8.09
2022-10-21T20:58:56.796Z,7.94
2022-10-21T21:01:25.707Z,8.02
2022-10-21T21:03:59.049Z,7.97
2022-10-21T21:06:26.148Z,7.90
2022-10-21T21:09:22.209Z,7.82
2022-10-21T21:11:39.470Z,7.87
2022-10-21T21:14:06.119Z,7.92
2022-10-21T21:16:32.856Z,7.80
2022-10-21T21:19:04.505Z,7.80
2022-10-21T21:21:33.991Z,7.84
2022-10-21T21:24:01.045Z,7.82
2022-10-21T21:26:33.001Z,7.82
2022-10-21T21:29:00.481Z,7.86
2022-10-21T21:31:28.234Z,7.86
2022-10-21T21:33:55.396Z,7.82
2022-10-21T21:36:22.306Z,7.67
2022-10-21T21:38:50.301Z,7.80
2022-10-21T21:41:17.489Z,7.83
2022-10-21T21:43:47.928Z,7.90
2022-10-21T21:46:22.742Z,8.02
2022-10-21T21:48:54.177Z,7.81
2022-10-21T21:51:23.400Z,7.94
2022-10-21T21:53:50.451Z,7.82
2022-10-21T21:56:19.236Z,7.87
2022-10-21T21:58:47.800Z,7.80
2022-10-21T22:01:16.846Z,7.96
2022-10-21T22:03:43.620Z,7.90
2022-10-21T22:06:10.665Z,7.81
2022-10-21T22:08:40.260Z,7.76
2022-10-21T22:11:13.284Z,7.94
2022-10-21T22:13:40.498Z,7.96
2022-10-21T22:16:08.896Z,7.99
2022-10-21T22:18:36.088Z,7.94
2022-10-21T22:21:05.240Z,7.88
2022-10-21T22:23:32.200Z,7.94
2022-10-21T22:25:58.994Z,7.78
2022-10-21T22:28:25.982Z,7.91
2022-10-21T22:31:03.880Z,7.86
2022-10-21T22:33:31.128Z,7.94
2022-10-21T22:35:57.637Z,7.99
2022-10-21T22:38:24.263Z,7.94
2022-10-21T22:40:54.379Z,7.87
2022-10-21T22:43:21.658Z,8.00
2022-10-21T22:45:48.314Z,7.94
2022-10-21T22:48:15.471Z,8.07
2022-10-21T22:50:41.967Z,7.90
2022-10-21T22:53:09.349Z,7.91
2022-10-21T22:55:36.256Z,7.88
2022-10-21T22:58:02.679Z,7.90
2022-10-21T23:00:29.135Z,7.96
2022-10-21T23:02:55.557Z,7.92
2022-10-21T23:05:22.850Z,7.93
2022-10-21T23:07:49.364Z,7.86
2022-10-21T23:10:15.942Z,7.78
2022-10-21T23:12:42.732Z,7.80
2022-10-21T23:15:09.979Z,7.72
2022-10-21T23:17:36.387Z,7.71
2022-10-21T23:20:03.023Z,7.85
2022-10-21T23:22:29.535Z,7.88
2022-10-21T23:24:56.104Z,7.81
2022-10-21T23:27:22.524Z,7.83
2022-10-21T23:29:48.944Z,7.86
2022-10-21T23:32:15.369Z,7.84
2022-10-21T23:34:41.825Z,7.80
2022-10-21T23:37:08.536Z,7.90
2022-10-21T23:39:35.234Z,7.94
2022-10-21T23:42:01.741Z,7.96
2022-10-21T23:44:29.409Z,7.91
2022-10-21T23:46:56.852Z,7.98
2022-10-21T23:49:23.513Z,8.02
2022-10-21T23:51:50.228Z,8.15
2022-10-21T23:54:16.712Z,8.06
2022-10-21T23:56:43.301Z,7.93
2022-10-21T23:59:09.777Z,8.04
